Terminal Aerodrome Forecast
Issued by NWS

Home | Current Version | Previous Version | Text Only | Print | Product List | Glossary On
Versions: 1 2 3 4 5 6 7 8 9 10 11 12 13 14 15 16 17 18 19 20 21
000
FTUS41 KILN 012300 RRA
TAFLUK
TAF
KLUK 012341Z 0200/0224 00000KT P6SM VCSH SCT110
     FM020800 00000KT 4SM BR VCSH SCT060 BKN100
      TEMPO 0209/0212 1 1/2SM BR
     FM021400 VRB04KT P6SM -SHRA VCTS BKN040CB
     FM022300 VRB03KT P6SM SCT100=

USA.gov is the U.S. government's official web portal to all federal, state and local government web resources and services.